Tulsa International Airport
KTUL : rendu visible

Aérodrome :











RETROUVEZ-NOUS SUR...

 
LOGIN :

S'inscrire | Disclaimer

   EN    FR    IT 

 









Légende :    VFR   VFR Marginal   IFR   IFR Intensif   IFR Très Intensif
Visi : 
Plafond : 
>= 8 km
>= 3000ft
5 à 8 km
1000 à 3000 ft
1500m à 5 km
500 à 1000 ft
800 à 1500m
200 à 500 ft
< 800m
< 200 ft
Symboles :   Orages  Brouillard  Fortes neiges  Fortes précipitations  Vent > 20 kt






- Altitude de l'aérodrome : 677 ft
- Code IATA : TUL


KTUL - Tulsa International

DERNIER METAR :
  • 290553Z 29009G19KT 10SM CLR 11/04 A2998 RMK AO2 SLP149 T01110044 10206 20111 402330111 51034

METARs EXPIRÉS :
  • 290453Z 30012G21KT 10SM CLR 12/04 A2996 RMK AO2 PK WND 29030/0401 SLP141 T01220039
  • 290353Z 29016G25KT 10SM CLR 14/03 A2993 RMK AO2 PK WND 32033/0310 SLP131 T01390033

TAF KTUL
Valide du 29 à 06h jusqu'au 30 à 06h UTC


290520Z 2906/3006 30012G21KT P6SM SKC
FM290800 25006KT P6SM SKC
FM291500 25008KT P6SM SCT250
FM300100 16005KT P6SM SCT250



MET'MAP, la Météo Aéronautique d'un coup d'oeil ! - Copyright ORBIFLY Décembre 2007 - Disclaimer

ORBIFLY MET'MAP TEAM :

Programmation & Développement : Alexandra Zaïnal
Sur une idée originale de : Baudouin d'Aumeries
Assistance à la programmation : Marc-Olivier Méhu
Soutien technique & logistique : Manuel Goepfert

Contact : metmap@orbifly.com




SOURCES & CREDITS :

   NOAA       Earth
Advisory